sensor_id;sensor_type;location;lat;lon;timestamp;temperature;humidity
7341;DHT22;6870;50.944;6.932;2023-05-29T00:01:22;24.10;27.70
7341;DHT22;6870;50.944;6.932;2023-05-29T00:03:51;24.00;27.30
7341;DHT22;6870;50.944;6.932;2023-05-29T00:06:20;24.10;27.00
7341;DHT22;6870;50.944;6.932;2023-05-29T00:08:48;24.10;26.30
7341;DHT22;6870;50.944;6.932;2023-05-29T00:11:17;23.90;26.10
7341;DHT22;6870;50.944;6.932;2023-05-29T00:13:45;23.90;25.50
7341;DHT22;6870;50.944;6.932;2023-05-29T00:16:13;23.80;25.50
7341;DHT22;6870;50.944;6.932;2023-05-29T00:18:41;23.80;25.20
7341;DHT22;6870;50.944;6.932;2023-05-29T00:21:12;23.80;24.80
7341;DHT22;6870;50.944;6.932;2023-05-29T00:23:41;23.80;24.20
7341;DHT22;6870;50.944;6.932;2023-05-29T00:26:12;23.80;25.00
7341;DHT22;6870;50.944;6.932;2023-05-29T00:28:44;23.90;25.00
7341;DHT22;6870;50.944;6.932;2023-05-29T00:31:12;23.90;24.50
7341;DHT22;6870;50.944;6.932;2023-05-29T00:33:40;23.80;24.40
7341;DHT22;6870;50.944;6.932;2023-05-29T00:36:09;23.60;24.50
7341;DHT22;6870;50.944;6.932;2023-05-29T00:38:37;23.40;24.20
7341;DHT22;6870;50.944;6.932;2023-05-29T00:41:05;23.70;24.10
7341;DHT22;6870;50.944;6.932;2023-05-29T00:43:33;23.70;24.00
7341;DHT22;6870;50.944;6.932;2023-05-29T00:46:02;23.70;24.00
7341;DHT22;6870;50.944;6.932;2023-05-29T00:48:31;23.70;24.00
7341;DHT22;6870;50.944;6.932;2023-05-29T00:50:59;23.40;23.80
7341;DHT22;6870;50.944;6.932;2023-05-29T00:53:27;23.60;24.00
7341;DHT22;6870;50.944;6.932;2023-05-29T00:55:55;23.60;23.90
7341;DHT22;6870;50.944;6.932;2023-05-29T00:58:24;23.70;24.00
7341;DHT22;6870;50.944;6.932;2023-05-29T01:00:52;23.50;23.90
7341;DHT22;6870;50.944;6.932;2023-05-29T01:03:22;23.80;24.10
7341;DHT22;6870;50.944;6.932;2023-05-29T01:05:50;23.40;23.90
7341;DHT22;6870;50.944;6.932;2023-05-29T01:08:19;23.60;24.20
7341;DHT22;6870;50.944;6.932;2023-05-29T01:10:47;23.50;24.10
7341;DHT22;6870;50.944;6.932;2023-05-29T01:13:19;23.30;24.10
7341;DHT22;6870;50.944;6.932;2023-05-29T01:15:54;23.20;23.90
7341;DHT22;6870;50.944;6.932;2023-05-29T01:18:34;23.60;24.00
7341;DHT22;6870;50.944;6.932;2023-05-29T01:21:12;23.40;23.80
7341;DHT22;6870;50.944;6.932;2023-05-29T01:23:53;23.30;23.80
7341;DHT22;6870;50.944;6.932;2023-05-29T01:26:49;23.40;23.80
7341;DHT22;6870;50.944;6.932;2023-05-29T01:29:22;23.60;23.90
7341;DHT22;6870;50.944;6.932;2023-05-29T01:31:51;23.40;23.50
7341;DHT22;6870;50.944;6.932;2023-05-29T01:34:20;23.30;23.80
7341;DHT22;6870;50.944;6.932;2023-05-29T01:36:48;23.20;23.60
7341;DHT22;6870;50.944;6.932;2023-05-29T01:39:16;23.20;23.70
7341;DHT22;6870;50.944;6.932;2023-05-29T01:41:45;23.50;24.00
7341;DHT22;6870;50.944;6.932;2023-05-29T01:44:16;23.20;23.70
7341;DHT22;6870;50.944;6.932;2023-05-29T01:46:45;23.50;23.80
7341;DHT22;6870;50.944;6.932;2023-05-29T01:49:15;23.30;23.50
7341;DHT22;6870;50.944;6.932;2023-05-29T01:51:43;23.40;23.60
7341;DHT22;6870;50.944;6.932;2023-05-29T01:54:11;23.10;23.60
7341;DHT22;6870;50.944;6.932;2023-05-29T01:56:39;23.20;23.50
7341;DHT22;6870;50.944;6.932;2023-05-29T01:59:10;23.20;23.40
7341;DHT22;6870;50.944;6.932;2023-05-29T02:01:39;23.30;23.70
7341;DHT22;6870;50.944;6.932;2023-05-29T02:04:08;23.10;23.40
7341;DHT22;6870;50.944;6.932;2023-05-29T02:06:36;23.40;23.60
7341;DHT22;6870;50.944;6.932;2023-05-29T02:09:04;23.10;23.40
7341;DHT22;6870;50.944;6.932;2023-05-29T02:11:33;23.10;23.30
7341;DHT22;6870;50.944;6.932;2023-05-29T02:14:01;23.00;23.10
7341;DHT22;6870;50.944;6.932;2023-05-29T02:16:32;23.10;23.10
7341;DHT22;6870;50.944;6.932;2023-05-29T02:19:00;23.10;23.50
7341;DHT22;6870;50.944;6.932;2023-05-29T02:21:29;23.00;23.50
7341;DHT22;6870;50.944;6.932;2023-05-29T02:23:58;23.20;23.70
7341;DHT22;6870;50.944;6.932;2023-05-29T02:26:26;23.20;23.70
7341;DHT22;6870;50.944;6.932;2023-05-29T02:28:54;23.20;23.70
7341;DHT22;6870;50.944;6.932;2023-05-29T02:31:22;23.20;23.50
7341;DHT22;6870;50.944;6.932;2023-05-29T02:33:52;22.80;23.10
7341;DHT22;6870;50.944;6.932;2023-05-29T02:36:20;23.10;23.30
7341;DHT22;6870;50.944;6.932;2023-05-29T02:38:48;22.80;22.90
7341;DHT22;6870;50.944;6.932;2023-05-29T02:41:16;22.90;22.90
7341;DHT22;6870;50.944;6.932;2023-05-29T02:43:44;22.90;22.80
7341;DHT22;6870;50.944;6.932;2023-05-29T02:46:12;22.80;22.80
7341;DHT22;6870;50.944;6.932;2023-05-29T02:48:40;22.90;22.70
7341;DHT22;6870;50.944;6.932;2023-05-29T02:51:09;22.70;22.60
7341;DHT22;6870;50.944;6.932;2023-05-29T02:53:37;22.70;22.50
7341;DHT22;6870;50.944;6.932;2023-05-29T02:56:07;23.00;22.80
7341;DHT22;6870;50.944;6.932;2023-05-29T02:58:35;22.60;22.40
7341;DHT22;6870;50.944;6.932;2023-05-29T03:01:03;22.70;22.40
7341;DHT22;6870;50.944;6.932;2023-05-29T03:03:32;22.50;22.30
7341;DHT22;6870;50.944;6.932;2023-05-29T03:06:00;22.90;22.60
7341;DHT22;6870;50.944;6.932;2023-05-29T03:08:31;22.70;22.40
7341;DHT22;6870;50.944;6.932;2023-05-29T03:11:00;22.50;22.30
7341;DHT22;6870;50.944;6.932;2023-05-29T03:13:29;22.80;22.30
7341;DHT22;6870;50.944;6.932;2023-05-29T03:15:57;22.90;22.70
7341;DHT22;6870;50.944;6.932;2023-05-29T03:18:25;22.80;23.60
7341;DHT22;6870;50.944;6.932;2023-05-29T03:20:53;23.00;23.00
7341;DHT22;6870;50.944;6.932;2023-05-29T03:23:22;23.20;23.70
7341;DHT22;6870;50.944;6.932;2023-05-29T03:25:54;23.00;23.50
7341;DHT22;6870;50.944;6.932;2023-05-29T03:28:22;22.90;23.50
7341;DHT22;6870;50.944;6.932;2023-05-29T03:30:50;23.20;23.70
7341;DHT22;6870;50.944;6.932;2023-05-29T03:33:19;23.00;23.50
7341;DHT22;6870;50.944;6.932;2023-05-29T03:35:47;23.20;23.70
7341;DHT22;6870;50.944;6.932;2023-05-29T03:38:15;23.20;24.00
7341;DHT22;6870;50.944;6.932;2023-05-29T03:40:43;23.10;24.10
7341;DHT22;6870;50.944;6.932;2023-05-29T03:43:12;23.00;23.50
7341;DHT22;6870;50.944;6.932;2023-05-29T03:45:40;23.10;23.90
7341;DHT22;6870;50.944;6.932;2023-05-29T03:48:08;23.40;23.90
7341;DHT22;6870;50.944;6.932;2023-05-29T03:50:36;23.20;24.20
7341;DHT22;6870;50.944;6.932;2023-05-29T03:53:04;22.90;23.60
7341;DHT22;6870;50.944;6.932;2023-05-29T03:55:32;23.30;23.80
7341;DHT22;6870;50.944;6.932;2023-05-29T03:58:00;23.40;24.00
7341;DHT22;6870;50.944;6.932;2023-05-29T04:00:29;23.10;23.70
7341;DHT22;6870;50.944;6.932;2023-05-29T04:02:58;23.60;24.00
7341;DHT22;6870;50.944;6.932;2023-05-29T04:05:26;23.20;24.70
7341;DHT22;6870;50.944;6.932;2023-05-29T04:07:54;23.50;24.60
7341;DHT22;6870;50.944;6.932;2023-05-29T04:10:40;23.40;24.00
7341;DHT22;6870;50.944;6.932;2023-05-29T04:13:10;23.20;25.10
7341;DHT22;6870;50.944;6.932;2023-05-29T04:15:39;23.30;24.50
7341;DHT22;6870;50.944;6.932;2023-05-29T04:18:08;23.40;25.40
7341;DHT22;6870;50.944;6.932;2023-05-29T04:20:36;23.60;24.80
7341;DHT22;6870;50.944;6.932;2023-05-29T04:23:04;23.70;25.70
7341;DHT22;6870;50.944;6.932;2023-05-29T04:25:32;23.30;25.40
7341;DHT22;6870;50.944;6.932;2023-05-29T04:28:01;23.60;25.50
7341;DHT22;6870;50.944;6.932;2023-05-29T04:30:30;23.40;25.50
7341;DHT22;6870;50.944;6.932;2023-05-29T04:33:01;23.40;25.00
7341;DHT22;6870;50.944;6.932;2023-05-29T04:35:30;23.50;25.70
7341;DHT22;6870;50.944;6.932;2023-05-29T04:37:58;23.50;25.40
7341;DHT22;6870;50.944;6.932;2023-05-29T04:40:26;23.40;25.50
7341;DHT22;6870;50.944;6.932;2023-05-29T04:42:54;23.60;25.60
7341;DHT22;6870;50.944;6.932;2023-05-29T04:45:22;23.70;26.10
7341;DHT22;6870;50.944;6.932;2023-05-29T04:47:50;23.70;26.10
7341;DHT22;6870;50.944;6.932;2023-05-29T04:50:21;23.60;25.50
7341;DHT22;6870;50.944;6.932;2023-05-29T04:52:50;23.70;25.60
7341;DHT22;6870;50.944;6.932;2023-05-29T04:55:18;23.80;25.90
7341;DHT22;6870;50.944;6.932;2023-05-29T04:57:47;23.70;26.10
7341;DHT22;6870;50.944;6.932;2023-05-29T05:00:16;23.70;26.10
7341;DHT22;6870;50.944;6.932;2023-05-29T05:02:45;23.90;26.70
7341;DHT22;6870;50.944;6.932;2023-05-29T05:05:13;23.80;26.10
7341;DHT22;6870;50.944;6.932;2023-05-29T05:07:42;23.70;26.70
7341;DHT22;6870;50.944;6.932;2023-05-29T05:10:11;23.80;26.70
7341;DHT22;6870;50.944;6.932;2023-05-29T05:12:39;23.50;26.40
7341;DHT22;6870;50.944;6.932;2023-05-29T05:15:08;23.70;26.80
7341;DHT22;6870;50.944;6.932;2023-05-29T05:17:37;23.80;26.90
7341;DHT22;6870;50.944;6.932;2023-05-29T05:20:06;23.50;26.20
7341;DHT22;6870;50.944;6.932;2023-05-29T05:22:35;23.90;27.00
7341;DHT22;6870;50.944;6.932;2023-05-29T05:25:05;23.80;26.30
7341;DHT22;6870;50.944;6.932;2023-05-29T05:27:33;23.80;26.60
7341;DHT22;6870;50.944;6.932;2023-05-29T05:30:02;23.80;26.50
7341;DHT22;6870;50.944;6.932;2023-05-29T05:32:30;24.00;26.70
7341;DHT22;6870;50.944;6.932;2023-05-29T05:34:58;23.60;26.50
7341;DHT22;6870;50.944;6.932;2023-05-29T05:37:26;24.10;27.00
7341;DHT22;6870;50.944;6.932;2023-05-29T05:39:54;23.80;27.00
7341;DHT22;6870;50.944;6.932;2023-05-29T05:42:26;24.00;27.60
7341;DHT22;6870;50.944;6.932;2023-05-29T05:44:54;23.70;26.90
7341;DHT22;6870;50.944;6.932;2023-05-29T05:47:22;23.50;26.80
7341;DHT22;6870;50.944;6.932;2023-05-29T05:49:50;23.90;27.40
7341;DHT22;6870;50.944;6.932;2023-05-29T05:52:18;23.70;27.10
7341;DHT22;6870;50.944;6.932;2023-05-29T05:54:46;23.90;27.20
7341;DHT22;6870;50.944;6.932;2023-05-29T05:57:14;23.90;27.30
7341;DHT22;6870;50.944;6.932;2023-05-29T05:59:44;23.90;28.20
7341;DHT22;6870;50.944;6.932;2023-05-29T06:02:12;23.80;27.10
7341;DHT22;6870;50.944;6.932;2023-05-29T06:04:40;23.90;27.40
7341;DHT22;6870;50.944;6.932;2023-05-29T06:07:08;23.80;27.60
7341;DHT22;6870;50.944;6.932;2023-05-29T06:09:39;24.00;28.10
7341;DHT22;6870;50.944;6.932;2023-05-29T06:12:08;24.10;28.00
7341;DHT22;6870;50.944;6.932;2023-05-29T06:14:36;23.90;27.70
7341;DHT22;6870;50.944;6.932;2023-05-29T06:17:06;23.70;27.90
7341;DHT22;6870;50.944;6.932;2023-05-29T06:19:34;23.50;27.60
7341;DHT22;6870;50.944;6.932;2023-05-29T06:22:02;23.90;27.00
7341;DHT22;6870;50.944;6.932;2023-05-29T06:24:30;23.80;26.70
7341;DHT22;6870;50.944;6.932;2023-05-29T06:26:58;23.70;26.50
7341;DHT22;6870;50.944;6.932;2023-05-29T06:29:26;23.80;26.00
7341;DHT22;6870;50.944;6.932;2023-05-29T06:31:54;23.70;25.00
7341;DHT22;6870;50.944;6.932;2023-05-29T06:34:24;23.60;24.10
7341;DHT22;6870;50.944;6.932;2023-05-29T06:36:52;23.70;24.40
7341;DHT22;6870;50.944;6.932;2023-05-29T06:39:20;23.80;24.10
7341;DHT22;6870;50.944;6.932;2023-05-29T06:41:48;23.20;23.60
7341;DHT22;6870;50.944;6.932;2023-05-29T06:44:16;23.70;24.00
7341;DHT22;6870;50.944;6.932;2023-05-29T06:46:44;23.30;22.70
7341;DHT22;6870;50.944;6.932;2023-05-29T06:49:12;23.40;23.10
7341;DHT22;6870;50.944;6.932;2023-05-29T06:51:41;23.40;22.00
7341;DHT22;6870;50.944;6.932;2023-05-29T06:54:09;23.50;22.90
7341;DHT22;6870;50.944;6.932;2023-05-29T06:56:37;23.60;21.90
7341;DHT22;6870;50.944;6.932;2023-05-29T06:59:05;23.70;22.50
7341;DHT22;6870;50.944;6.932;2023-05-29T07:01:33;23.90;22.70
7341;DHT22;6870;50.944;6.932;2023-05-29T07:04:02;23.50;22.30
7341;DHT22;6870;50.944;6.932;2023-05-29T07:06:30;23.60;22.50
7341;DHT22;6870;50.944;6.932;2023-05-29T07:09:01;23.60;22.50
7341;DHT22;6870;50.944;6.932;2023-05-29T07:11:29;23.50;22.10
7341;DHT22;6870;50.944;6.932;2023-05-29T07:13:57;23.80;22.20
7341;DHT22;6870;50.944;6.932;2023-05-29T07:16:25;23.50;21.30
7341;DHT22;6870;50.944;6.932;2023-05-29T07:18:53;23.80;21.90
7341;DHT22;6870;50.944;6.932;2023-05-29T07:21:21;23.60;21.80
7341;DHT22;6870;50.944;6.932;2023-05-29T07:23:49;23.80;22.00
7341;DHT22;6870;50.944;6.932;2023-05-29T07:26:18;23.50;21.80
7341;DHT22;6870;50.944;6.932;2023-05-29T07:28:47;23.80;21.80
7341;DHT22;6870;50.944;6.932;2023-05-29T07:31:15;23.70;21.80
7341;DHT22;6870;50.944;6.932;2023-05-29T07:33:43;23.90;22.10
7341;DHT22;6870;50.944;6.932;2023-05-29T07:36:12;23.70;21.70
7341;DHT22;6870;50.944;6.932;2023-05-29T07:38:40;23.90;21.20
7341;DHT22;6870;50.944;6.932;2023-05-29T07:41:08;23.90;21.30
7341;DHT22;6870;50.944;6.932;2023-05-29T07:43:37;23.60;21.20
7341;DHT22;6870;50.944;6.932;2023-05-29T07:46:06;24.10;20.90
7341;DHT22;6870;50.944;6.932;2023-05-29T07:48:34;23.90;20.50
7341;DHT22;6870;50.944;6.932;2023-05-29T07:51:02;23.80;21.20
7341;DHT22;6870;50.944;6.932;2023-05-29T07:53:31;23.50;18.90
7341;DHT22;6870;50.944;6.932;2023-05-29T07:55:59;23.50;19.10
7341;DHT22;6870;50.944;6.932;2023-05-29T07:58:27;23.90;20.10
7341;DHT22;6870;50.944;6.932;2023-05-29T08:00:57;23.80;20.30
7341;DHT22;6870;50.944;6.932;2023-05-29T08:03:27;23.80;20.10
7341;DHT22;6870;50.944;6.932;2023-05-29T08:05:55;23.90;20.00
7341;DHT22;6870;50.944;6.932;2023-05-29T08:08:23;23.90;20.60
7341;DHT22;6870;50.944;6.932;2023-05-29T08:10:51;23.70;20.20
7341;DHT22;6870;50.944;6.932;2023-05-29T08:13:20;24.00;20.30
7341;DHT22;6870;50.944;6.932;2023-05-29T08:15:49;23.80;19.70
7341;DHT22;6870;50.944;6.932;2023-05-29T08:18:18;23.90;19.80
7341;DHT22;6870;50.944;6.932;2023-05-29T08:20:46;23.90;20.20
7341;DHT22;6870;50.944;6.932;2023-05-29T08:23:15;23.60;20.30
7341;DHT22;6870;50.944;6.932;2023-05-29T08:25:43;23.40;19.60
7341;DHT22;6870;50.944;6.932;2023-05-29T08:28:11;23.70;20.10
7341;DHT22;6870;50.944;6.932;2023-05-29T08:30:39;24.00;20.50
7341;DHT22;6870;50.944;6.932;2023-05-29T08:33:07;23.70;20.00
7341;DHT22;6870;50.944;6.932;2023-05-29T08:35:37;23.90;19.90
7341;DHT22;6870;50.944;6.932;2023-05-29T08:38:05;23.90;20.10
7341;DHT22;6870;50.944;6.932;2023-05-29T08:40:33;24.00;20.20
7341;DHT22;6870;50.944;6.932;2023-05-29T08:43:06;23.80;20.60
7341;DHT22;6870;50.944;6.932;2023-05-29T08:45:42;23.80;20.40
7341;DHT22;6870;50.944;6.932;2023-05-29T08:48:11;23.70;19.90
7341;DHT22;6870;50.944;6.932;2023-05-29T08:50:43;23.80;20.20
7341;DHT22;6870;50.944;6.932;2023-05-29T08:53:13;23.90;19.90
7341;DHT22;6870;50.944;6.932;2023-05-29T08:55:42;23.90;20.40
7341;DHT22;6870;50.944;6.932;2023-05-29T08:58:11;24.00;20.30
7341;DHT22;6870;50.944;6.932;2023-05-29T09:00:40;23.80;20.80
7341;DHT22;6870;50.944;6.932;2023-05-29T09:03:09;23.70;19.80
7341;DHT22;6870;50.944;6.932;2023-05-29T09:05:39;23.90;20.30
7341;DHT22;6870;50.944;6.932;2023-05-29T09:08:09;23.60;19.80
7341;DHT22;6870;50.944;6.932;2023-05-29T09:10:39;24.00;20.50
7341;DHT22;6870;50.944;6.932;2023-05-29T09:13:08;24.00;20.60
7341;DHT22;6870;50.944;6.932;2023-05-29T09:15:37;23.90;20.40
7341;DHT22;6870;50.944;6.932;2023-05-29T09:18:07;24.00;20.30
7341;DHT22;6870;50.944;6.932;2023-05-29T09:20:35;24.10;20.40
7341;DHT22;6870;50.944;6.932;2023-05-29T09:23:07;23.90;20.30
7341;DHT22;6870;50.944;6.932;2023-05-29T09:25:40;24.10;20.90
7341;DHT22;6870;50.944;6.932;2023-05-29T09:28:10;24.00;20.70
7341;DHT22;6870;50.944;6.932;2023-05-29T09:30:39;24.10;20.80
7341;DHT22;6870;50.944;6.932;2023-05-29T09:33:09;24.10;21.00
7341;DHT22;6870;50.944;6.932;2023-05-29T09:35:39;24.20;21.20
7341;DHT22;6870;50.944;6.932;2023-05-29T09:38:10;24.30;21.10
7341;DHT22;6870;50.944;6.932;2023-05-29T09:41:03;24.20;20.80
7341;DHT22;6870;50.944;6.932;2023-05-29T09:43:32;24.20;20.70
7341;DHT22;6870;50.944;6.932;2023-05-29T09:46:01;24.10;20.70
7341;DHT22;6870;50.944;6.932;2023-05-29T09:48:30;24.10;21.10
7341;DHT22;6870;50.944;6.932;2023-05-29T09:51:00;24.00;20.60
7341;DHT22;6870;50.944;6.932;2023-05-29T09:53:31;23.90;20.50
7341;DHT22;6870;50.944;6.932;2023-05-29T09:56:01;24.00;20.60
7341;DHT22;6870;50.944;6.932;2023-05-29T09:58:32;24.30;21.00
7341;DHT22;6870;50.944;6.932;2023-05-29T10:01:02;24.00;21.20
7341;DHT22;6870;50.944;6.932;2023-05-29T10:03:30;24.10;20.90
7341;DHT22;6870;50.944;6.932;2023-05-29T10:06:02;24.30;21.20
7341;DHT22;6870;50.944;6.932;2023-05-29T10:08:35;24.20;21.00
7341;DHT22;6870;50.944;6.932;2023-05-29T10:11:05;24.20;21.30
7341;DHT22;6870;50.944;6.932;2023-05-29T10:13:38;24.10;20.90
7341;DHT22;6870;50.944;6.932;2023-05-29T10:16:11;24.20;20.90
7341;DHT22;6870;50.944;6.932;2023-05-29T10:18:43;24.10;21.20
7341;DHT22;6870;50.944;6.932;2023-05-29T10:21:13;24.10;21.20
7341;DHT22;6870;50.944;6.932;2023-05-29T10:23:46;24.20;21.40
7341;DHT22;6870;50.944;6.932;2023-05-29T10:26:19;24.40;22.30
7341;DHT22;6870;50.944;6.932;2023-05-29T10:28:55;24.30;21.90
7341;DHT22;6870;50.944;6.932;2023-05-29T10:31:30;24.30;22.20
7341;DHT22;6870;50.944;6.932;2023-05-29T10:34:11;24.30;21.90
7341;DHT22;6870;50.944;6.932;2023-05-29T10:36:46;24.30;21.80
7341;DHT22;6870;50.944;6.932;2023-05-29T10:39:20;24.40;22.30
7341;DHT22;6870;50.944;6.932;2023-05-29T10:41:48;24.80;22.50
7341;DHT22;6870;50.944;6.932;2023-05-29T10:44:39;24.50;21.80
7341;DHT22;6870;50.944;6.932;2023-05-29T10:47:10;24.30;21.40
7341;DHT22;6870;50.944;6.932;2023-05-29T10:49:39;24.60;21.30
7341;DHT22;6870;50.944;6.932;2023-05-29T10:52:19;24.70;21.20
7341;DHT22;6870;50.944;6.932;2023-05-29T10:54:53;25.00;21.30
7341;DHT22;6870;50.944;6.932;2023-05-29T10:57:24;25.00;21.10
7341;DHT22;6870;50.944;6.932;2023-05-29T11:00:02;24.90;21.70
7341;DHT22;6870;50.944;6.932;2023-05-29T11:02:39;25.00;20.50
7341;DHT22;6870;50.944;6.932;2023-05-29T11:05:21;24.40;21.00
7341;DHT22;6870;50.944;6.932;2023-05-29T11:07:52;24.50;21.30
7341;DHT22;6870;50.944;6.932;2023-05-29T11:10:44;24.70;20.90
7341;DHT22;6870;50.944;6.932;2023-05-29T11:13:27;24.90;20.50
7341;DHT22;6870;50.944;6.932;2023-05-29T11:16:14;25.00;20.60
7341;DHT22;6870;50.944;6.932;2023-05-29T11:18:48;25.00;20.20
7341;DHT22;6870;50.944;6.932;2023-05-29T11:24:19;24.80;20.40
7341;DHT22;6870;50.944;6.932;2023-05-29T11:26:51;24.80;20.70
7341;DHT22;6870;50.944;6.932;2023-05-29T11:29:22;24.40;19.90
7341;DHT22;6870;50.944;6.932;2023-05-29T11:31:55;24.80;20.00
7341;DHT22;6870;50.944;6.932;2023-05-29T11:34:29;24.80;19.70
7341;DHT22;6870;50.944;6.932;2023-05-29T11:36:58;25.00;19.90
7341;DHT22;6870;50.944;6.932;2023-05-29T11:39:27;25.00;19.90
7341;DHT22;6870;50.944;6.932;2023-05-29T11:41:57;25.10;20.10
7341;DHT22;6870;50.944;6.932;2023-05-29T11:44:28;24.70;19.60
7341;DHT22;6870;50.944;6.932;2023-05-29T11:47:00;25.00;19.70
7341;DHT22;6870;50.944;6.932;2023-05-29T11:49:30;24.90;19.70
7341;DHT22;6870;50.944;6.932;2023-05-29T11:52:06;25.20;20.40
7341;DHT22;6870;50.944;6.932;2023-05-29T11:54:38;25.30;20.50
7341;DHT22;6870;50.944;6.932;2023-05-29T11:57:09;25.10;19.90
7341;DHT22;6870;50.944;6.932;2023-05-29T11:59:38;25.10;20.00
7341;DHT22;6870;50.944;6.932;2023-05-29T12:02:07;25.20;20.60
7341;DHT22;6870;50.944;6.932;2023-05-29T12:04:35;25.10;22.00
7341;DHT22;6870;50.944;6.932;2023-05-29T12:07:16;25.30;21.50
7341;DHT22;6870;50.944;6.932;2023-05-29T12:09:45;25.10;21.30
7341;DHT22;6870;50.944;6.932;2023-05-29T12:12:17;24.90;20.50
7341;DHT22;6870;50.944;6.932;2023-05-29T12:14:49;24.50;20.30
7341;DHT22;6870;50.944;6.932;2023-05-29T12:17:18;24.80;20.30
7341;DHT22;6870;50.944;6.932;2023-05-29T12:19:47;24.20;20.10
7341;DHT22;6870;50.944;6.932;2023-05-29T12:22:15;24.80;20.20
7341;DHT22;6870;50.944;6.932;2023-05-29T12:24:43;24.30;19.60
7341;DHT22;6870;50.944;6.932;2023-05-29T12:27:11;24.20;19.60
7341;DHT22;6870;50.944;6.932;2023-05-29T12:29:41;24.30;19.60
7341;DHT22;6870;50.944;6.932;2023-05-29T12:32:10;24.60;19.80
7341;DHT22;6870;50.944;6.932;2023-05-29T12:34:38;24.20;19.40
7341;DHT22;6870;50.944;6.932;2023-05-29T12:37:09;24.90;19.60
7341;DHT22;6870;50.944;6.932;2023-05-29T12:39:40;24.50;19.20
7341;DHT22;6870;50.944;6.932;2023-05-29T12:42:09;25.00;19.30
7341;DHT22;6870;50.944;6.932;2023-05-29T12:44:37;25.10;19.40
7341;DHT22;6870;50.944;6.932;2023-05-29T12:47:07;25.00;18.80
7341;DHT22;6870;50.944;6.932;2023-05-29T12:49:36;25.10;18.50
7341;DHT22;6870;50.944;6.932;2023-05-29T12:52:05;25.40;18.80
7341;DHT22;6870;50.944;6.932;2023-05-29T12:54:36;25.10;18.40
7341;DHT22;6870;50.944;6.932;2023-05-29T12:57:06;25.40;18.20
7341;DHT22;6870;50.944;6.932;2023-05-29T12:59:34;25.30;18.40
7341;DHT22;6870;50.944;6.932;2023-05-29T13:02:02;25.30;18.60
7341;DHT22;6870;50.944;6.932;2023-05-29T13:04:32;25.60;20.10
7341;DHT22;6870;50.944;6.932;2023-05-29T13:07:00;25.30;20.30
7341;DHT22;6870;50.944;6.932;2023-05-29T13:09:28;25.50;20.10
7341;DHT22;6870;50.944;6.932;2023-05-29T13:11:57;25.30;19.40
7341;DHT22;6870;50.944;6.932;2023-05-29T13:14:25;25.40;19.20
7341;DHT22;6870;50.944;6.932;2023-05-29T13:16:53;25.40;19.70
7341;DHT22;6870;50.944;6.932;2023-05-29T13:19:22;25.50;18.60
7341;DHT22;6870;50.944;6.932;2023-05-29T13:21:51;25.40;18.70
7341;DHT22;6870;50.944;6.932;2023-05-29T13:24:20;25.30;18.60
7341;DHT22;6870;50.944;6.932;2023-05-29T13:26:48;25.30;18.90
7341;DHT22;6870;50.944;6.932;2023-05-29T13:29:17;25.70;19.40
7341;DHT22;6870;50.944;6.932;2023-05-29T13:31:46;25.40;18.90
7341;DHT22;6870;50.944;6.932;2023-05-29T13:34:14;25.30;18.40
7341;DHT22;6870;50.944;6.932;2023-05-29T13:36:42;25.30;18.40
7341;DHT22;6870;50.944;6.932;2023-05-29T13:39:13;25.40;18.60
7341;DHT22;6870;50.944;6.932;2023-05-29T13:41:41;25.70;19.10
7341;DHT22;6870;50.944;6.932;2023-05-29T13:44:09;25.70;18.90
7341;DHT22;6870;50.944;6.932;2023-05-29T13:46:37;25.40;18.40
7341;DHT22;6870;50.944;6.932;2023-05-29T13:49:05;25.10;18.00
7341;DHT22;6870;50.944;6.932;2023-05-29T13:51:35;25.40;18.30
7341;DHT22;6870;50.944;6.932;2023-05-29T13:54:03;25.60;18.10
7341;DHT22;6870;50.944;6.932;2023-05-29T13:56:33;25.50;18.40
7341;DHT22;6870;50.944;6.932;2023-05-29T13:59:01;25.20;18.10
7341;DHT22;6870;50.944;6.932;2023-05-29T14:01:32;25.30;18.30
7341;DHT22;6870;50.944;6.932;2023-05-29T14:04:01;25.20;17.60
7341;DHT22;6870;50.944;6.932;2023-05-29T14:06:29;25.50;18.10
7341;DHT22;6870;50.944;6.932;2023-05-29T14:09:00;25.40;18.40
7341;DHT22;6870;50.944;6.932;2023-05-29T14:11:28;25.50;18.80
7341;DHT22;6870;50.944;6.932;2023-05-29T14:13:57;25.80;19.10
7341;DHT22;6870;50.944;6.932;2023-05-29T14:16:25;25.20;18.80
7341;DHT22;6870;50.944;6.932;2023-05-29T14:18:54;25.30;18.30
7341;DHT22;6870;50.944;6.932;2023-05-29T14:21:22;25.30;18.40
7341;DHT22;6870;50.944;6.932;2023-05-29T14:23:50;25.70;18.90
7341;DHT22;6870;50.944;6.932;2023-05-29T14:26:18;25.30;18.00
7341;DHT22;6870;50.944;6.932;2023-05-29T14:28:47;25.60;18.70
7341;DHT22;6870;50.944;6.932;2023-05-29T14:31:20;25.20;18.90
7341;DHT22;6870;50.944;6.932;2023-05-29T14:33:48;25.70;19.00
7341;DHT22;6870;50.944;6.932;2023-05-29T14:36:17;25.40;19.20
7341;DHT22;6870;50.944;6.932;2023-05-29T14:38:45;25.70;19.10
7341;DHT22;6870;50.944;6.932;2023-05-29T14:41:14;25.30;19.20
7341;DHT22;6870;50.944;6.932;2023-05-29T14:43:42;25.70;18.90
7341;DHT22;6870;50.944;6.932;2023-05-29T14:46:11;25.50;18.70
7341;DHT22;6870;50.944;6.932;2023-05-29T14:48:41;25.30;18.80
7341;DHT22;6870;50.944;6.932;2023-05-29T14:51:09;25.50;19.20
7341;DHT22;6870;50.944;6.932;2023-05-29T14:53:37;25.20;18.80
7341;DHT22;6870;50.944;6.932;2023-05-29T14:56:06;25.30;18.80
7341;DHT22;6870;50.944;6.932;2023-05-29T14:58:34;25.30;19.10
7341;DHT22;6870;50.944;6.932;2023-05-29T15:01:02;25.20;18.50
7341;DHT22;6870;50.944;6.932;2023-05-29T15:03:30;25.30;18.80
7341;DHT22;6870;50.944;6.932;2023-05-29T15:06:00;24.80;18.80
7341;DHT22;6870;50.944;6.932;2023-05-29T15:08:30;25.10;18.70
7341;DHT22;6870;50.944;6.932;2023-05-29T15:11:01;24.90;19.00
7341;DHT22;6870;50.944;6.932;2023-05-29T15:13:29;25.00;19.50
7341;DHT22;6870;50.944;6.932;2023-05-29T15:15:57;25.10;19.80
7341;DHT22;6870;50.944;6.932;2023-05-29T15:18:26;25.50;20.00
7341;DHT22;6870;50.944;6.932;2023-05-29T15:20:54;25.30;20.00
7341;DHT22;6870;50.944;6.932;2023-05-29T15:23:24;24.90;19.90
7341;DHT22;6870;50.944;6.932;2023-05-29T15:25:52;25.30;20.20
7341;DHT22;6870;50.944;6.932;2023-05-29T15:28:21;25.40;20.40
7341;DHT22;6870;50.944;6.932;2023-05-29T15:30:49;25.10;19.90
7341;DHT22;6870;50.944;6.932;2023-05-29T15:33:19;25.20;20.00
7341;DHT22;6870;50.944;6.932;2023-05-29T15:35:47;25.40;20.30
7341;DHT22;6870;50.944;6.932;2023-05-29T15:38:16;25.20;19.90
7341;DHT22;6870;50.944;6.932;2023-05-29T15:40:46;25.10;19.80
7341;DHT22;6870;50.944;6.932;2023-05-29T15:43:14;24.90;20.00
7341;DHT22;6870;50.944;6.932;2023-05-29T15:45:42;24.90;19.70
7341;DHT22;6870;50.944;6.932;2023-05-29T15:48:10;25.10;20.00
7341;DHT22;6870;50.944;6.932;2023-05-29T15:50:38;25.00;19.90
7341;DHT22;6870;50.944;6.932;2023-05-29T15:53:06;24.80;19.80
7341;DHT22;6870;50.944;6.932;2023-05-29T15:55:34;25.00;20.30
7341;DHT22;6870;50.944;6.932;2023-05-29T15:58:04;24.80;18.60
7341;DHT22;6870;50.944;6.932;2023-05-29T16:00:33;24.80;19.90
7341;DHT22;6870;50.944;6.932;2023-05-29T16:03:04;25.10;20.00
7341;DHT22;6870;50.944;6.932;2023-05-29T16:05:34;25.00;20.00
7341;DHT22;6870;50.944;6.932;2023-05-29T16:08:41;25.20;19.90
7341;DHT22;6870;50.944;6.932;2023-05-29T16:11:30;25.10;19.90
7341;DHT22;6870;50.944;6.932;2023-05-29T16:13:59;25.10;20.10
7341;DHT22;6870;50.944;6.932;2023-05-29T16:16:27;25.10;20.30
7341;DHT22;6870;50.944;6.932;2023-05-29T16:18:58;25.10;20.80
7341;DHT22;6870;50.944;6.932;2023-05-29T16:21:27;25.10;20.80